createdAt,value
2022-12-13T00:03:30.376Z,1000.15
2022-12-13T00:08:29.261Z,1000.24
2022-12-13T00:13:29.206Z,1000.14
2022-12-13T00:18:29.078Z,999.99
2022-12-13T00:23:29.077Z,1000.01
2022-12-13T00:28:28.966Z,999.92
2022-12-13T00:33:28.950Z,999.93
2022-12-13T00:38:28.887Z,999.87
2022-12-13T00:43:28.757Z,999.88
2022-12-13T00:48:28.711Z,999.95
2022-12-13T00:53:28.646Z,999.92
2022-12-13T00:58:28.569Z,999.87
2022-12-13T01:03:28.563Z,999.88
2022-12-13T01:08:28.510Z,999.85
2022-12-13T01:13:28.385Z,999.92
2022-12-13T01:18:28.337Z,1000.00
2022-12-13T01:23:28.274Z,999.89
2022-12-13T01:28:28.201Z,999.81
2022-12-13T01:33:28.212Z,999.81
2022-12-13T01:38:28.071Z,999.77
2022-12-13T01:43:28.074Z,999.74
2022-12-13T01:48:27.942Z,999.79
2022-12-13T01:53:27.905Z,999.77
2022-12-13T01:58:27.785Z,999.80
2022-12-13T02:03:27.790Z,999.85
2022-12-13T02:08:27.759Z,999.71
2022-12-13T02:13:27.679Z,999.79
2022-12-13T02:18:27.577Z,999.78
2022-12-13T02:23:27.475Z,999.69
2022-12-13T02:28:31.696Z,999.73
2022-12-13T02:33:27.372Z,999.70
2022-12-13T02:38:27.364Z,999.67
2022-12-13T02:43:33.567Z,999.67
2022-12-13T02:48:28.159Z,999.72
2022-12-13T02:53:27.102Z,999.72
2022-12-13T02:58:27.039Z,999.69
2022-12-13T03:03:27.128Z,999.70
2022-12-13T03:08:26.945Z,999.63
2022-12-13T03:13:26.839Z,999.58
2022-12-13T03:18:26.767Z,999.63
2022-12-13T03:23:26.721Z,999.63
2022-12-13T03:28:26.678Z,999.59
2022-12-13T03:33:26.579Z,999.56
2022-12-13T03:38:26.589Z,999.56
2022-12-13T03:43:26.452Z,999.47
2022-12-13T03:48:26.384Z,999.41
2022-12-13T03:53:32.450Z,999.41
2022-12-13T03:58:27.274Z,999.49
2022-12-13T04:03:27.248Z,999.41
2022-12-13T04:08:26.168Z,999.39
2022-12-13T04:13:26.050Z,999.48
2022-12-13T04:18:26.027Z,999.52
2022-12-13T04:23:25.936Z,999.49
2022-12-13T04:28:25.902Z,999.43
2022-12-13T04:33:25.802Z,999.49
2022-12-13T04:38:25.765Z,999.49
2022-12-13T04:43:25.676Z,999.55
2022-12-13T04:48:30.646Z,999.51
2022-12-13T04:53:26.562Z,999.50
2022-12-13T04:58:25.484Z,999.64
2022-12-13T05:03:25.418Z,999.50
2022-12-13T05:08:25.401Z,999.51
2022-12-13T05:13:25.298Z,999.58
2022-12-13T05:18:25.239Z,999.62
2022-12-13T05:23:25.177Z,999.67
2022-12-13T05:28:28.482Z,999.63
2022-12-13T05:33:25.035Z,999.72
2022-12-13T05:38:24.974Z,999.66
2022-12-13T05:43:24.913Z,999.73
2022-12-13T05:48:25.879Z,999.66
2022-12-13T05:53:30.752Z,999.76
2022-12-13T05:58:25.712Z,999.66
2022-12-13T06:03:24.725Z,999.72
2022-12-13T06:08:25.594Z,999.82
2022-12-13T06:13:31.904Z,999.77
2022-12-13T06:18:25.468Z,999.79
2022-12-13T06:23:24.432Z,999.81
2022-12-13T06:28:24.380Z,999.90
2022-12-13T06:33:24.378Z,999.93
2022-12-13T06:38:32.122Z,999.93
2022-12-13T06:43:25.165Z,1000.01
2022-12-13T06:48:24.134Z,1000.03
2022-12-13T06:53:24.095Z,1000.03
2022-12-13T06:58:23.991Z,1000.11
2022-12-13T07:03:23.933Z,1000.18
2022-12-13T07:08:23.932Z,1000.21
2022-12-13T07:13:23.778Z,1000.29
2022-12-13T07:18:23.745Z,1000.25
2022-12-13T07:23:24.667Z,1000.25
2022-12-13T07:28:23.634Z,1000.26
2022-12-13T07:33:23.626Z,1000.15
2022-12-13T07:38:23.467Z,1000.42
2022-12-13T07:43:23.559Z,1000.42
2022-12-13T07:48:23.408Z,1000.43
2022-12-13T07:53:23.325Z,1000.47
2022-12-13T07:58:23.224Z,1000.60
2022-12-13T08:03:25.358Z,1000.54
2022-12-13T08:08:23.510Z,1000.51
2022-12-13T08:13:24.058Z,1000.39
2022-12-13T08:18:23.948Z,1000.38
2022-12-13T08:23:23.265Z,1000.42
2022-12-13T08:28:22.914Z,1000.35
2022-12-13T08:33:23.009Z,1000.30
2022-12-13T08:38:23.165Z,1000.29
2022-12-13T08:43:24.939Z,1000.33
2022-12-13T08:48:23.179Z,1000.39
2022-12-13T08:53:29.007Z,1000.38
2022-12-13T08:58:23.462Z,1000.34
2022-12-13T09:03:22.849Z,1000.31
2022-12-13T09:08:24.617Z,1000.32
2022-12-13T09:13:31.400Z,1000.35
2022-12-13T09:18:24.393Z,1000.33
2022-12-13T09:23:23.476Z,1000.34
2022-12-13T09:28:22.059Z,1000.39
2022-12-13T09:33:29.830Z,1000.36
2022-12-13T09:38:22.968Z,1000.28
2022-12-13T09:43:31.321Z,1000.29
2022-12-13T09:48:23.234Z,1000.31
2022-12-13T09:53:22.193Z,1000.37
2022-12-13T09:58:22.088Z,1000.23
2022-12-13T10:03:21.988Z,1000.15
2022-12-13T10:08:21.652Z,1000.13
2022-12-13T10:13:21.733Z,1000.16
2022-12-13T10:18:21.463Z,1000.05
2022-12-13T10:23:38.577Z,999.97
2022-12-13T10:28:22.290Z,999.97
2022-12-13T10:33:24.372Z,999.94
2022-12-13T10:38:21.228Z,999.91
2022-12-13T10:43:21.415Z,999.86
2022-12-13T10:48:21.088Z,999.81
2022-12-13T10:53:22.675Z,999.72
2022-12-13T10:58:20.906Z,999.67
2022-12-13T11:03:20.885Z,999.63
2022-12-13T11:08:20.918Z,999.62
2022-12-13T11:13:20.998Z,999.59
2022-12-13T11:18:20.674Z,999.57
2022-12-13T11:23:20.587Z,999.44
2022-12-13T11:28:25.676Z,999.42
2022-12-13T11:33:21.484Z,999.38
2022-12-13T11:38:20.377Z,999.29
2022-12-13T11:43:20.404Z,999.25
2022-12-13T11:48:20.329Z,999.39
2022-12-13T11:53:20.307Z,999.28
2022-12-13T11:58:45.647Z,999.45
2022-12-13T12:03:21.162Z,999.36
2022-12-13T12:08:32.433Z,999.32
2022-12-13T12:13:20.935Z,999.36
2022-12-13T12:18:19.898Z,999.39
2022-12-13T12:23:19.896Z,999.26
2022-12-13T12:28:19.771Z,999.26
2022-12-13T12:33:19.733Z,999.27
2022-12-13T12:38:19.663Z,999.26
2022-12-13T12:43:19.589Z,999.38
2022-12-13T12:53:20.521Z,999.28
2022-12-13T12:58:19.696Z,999.24
2022-12-13T13:03:23.049Z,999.26
2022-12-13T13:08:19.225Z,999.26
2022-12-13T13:13:32.876Z,999.28
2022-12-13T13:18:20.114Z,999.17
2022-12-13T13:23:43.900Z,999.20
2022-12-13T13:28:20.019Z,999.22
2022-12-13T13:33:18.956Z,999.15
2022-12-13T13:38:18.861Z,999.14
2022-12-13T13:43:18.803Z,999.22
2022-12-13T13:48:18.777Z,999.19
2022-12-13T13:53:21.321Z,999.37
2022-12-13T13:58:21.909Z,999.28
2022-12-13T14:03:29.312Z,999.30
2022-12-13T14:08:20.440Z,999.32
2022-12-13T14:13:18.399Z,999.36
2022-12-13T14:18:21.647Z,999.33
2022-12-13T14:23:21.677Z,999.27
2022-12-13T14:28:18.254Z,999.32
2022-12-13T14:33:18.146Z,999.36
2022-12-13T14:38:18.113Z,999.36
2022-12-13T14:43:23.911Z,999.37
2022-12-13T14:48:27.861Z,999.49
2022-12-13T14:53:18.926Z,999.44
2022-12-13T14:58:17.871Z,999.42
2022-12-13T15:03:17.762Z,999.27
2022-12-13T15:08:17.788Z,999.31
2022-12-13T15:13:17.714Z,999.31
2022-12-13T15:18:17.581Z,999.22
2022-12-13T15:23:17.581Z,999.22
2022-12-13T15:28:21.667Z,999.14
2022-12-13T15:33:17.398Z,999.26
2022-12-13T15:38:28.326Z,999.28
2022-12-13T15:43:18.322Z,999.27
2022-12-13T15:48:17.179Z,999.34
2022-12-13T15:53:17.142Z,999.33
2022-12-13T15:58:17.121Z,999.30
2022-12-13T16:03:17.096Z,999.27
2022-12-13T16:08:16.953Z,999.29
2022-12-13T16:13:17.532Z,999.34
2022-12-13T16:18:17.883Z,999.34
2022-12-13T16:23:26.789Z,999.42
2022-12-13T16:28:17.706Z,999.32
2022-12-13T16:33:27.013Z,999.27
2022-12-13T16:38:25.955Z,999.21
2022-12-13T16:43:17.511Z,999.20
2022-12-13T16:48:16.542Z,999.26
2022-12-13T16:53:17.625Z,999.19
2022-12-13T16:58:16.309Z,999.11
2022-12-13T17:03:16.995Z,999.10
2022-12-13T17:08:16.182Z,998.97
2022-12-13T17:13:16.320Z,998.93
2022-12-13T17:18:16.098Z,999.00
2022-12-13T17:23:18.147Z,999.00
2022-12-13T17:28:15.928Z,998.92
2022-12-13T17:33:15.868Z,998.96
2022-12-13T17:38:15.836Z,999.00
2022-12-13T17:43:26.246Z,999.05
2022-12-13T17:48:16.801Z,999.16
2022-12-13T17:53:15.670Z,999.08
2022-12-13T17:58:15.585Z,999.13
2022-12-13T18:03:15.568Z,999.03
2022-12-13T18:08:15.430Z,998.94
2022-12-13T18:13:15.392Z,999.02
2022-12-13T18:18:15.343Z,999.00
2022-12-13T18:23:15.271Z,998.89
2022-12-13T18:28:15.276Z,998.96
2022-12-13T18:33:15.522Z,998.90
2022-12-13T18:38:15.047Z,998.86
2022-12-13T18:43:15.054Z,998.88
2022-12-13T18:48:14.975Z,998.95
2022-12-13T18:53:14.875Z,998.97
2022-12-13T18:58:14.844Z,998.91
2022-12-13T19:03:14.847Z,998.94
2022-12-13T19:08:14.682Z,998.78
2022-12-13T19:13:14.667Z,998.68
2022-12-13T19:18:14.649Z,998.62
2022-12-13T19:23:14.555Z,998.73
2022-12-13T19:28:14.456Z,998.83
2022-12-13T19:33:14.397Z,998.94
2022-12-13T19:38:14.394Z,998.82
2022-12-13T19:43:14.231Z,998.93
2022-12-13T19:48:14.257Z,998.76
2022-12-13T19:53:14.115Z,998.72
2022-12-13T19:58:14.079Z,998.69
2022-12-13T20:03:14.076Z,998.64
2022-12-13T20:08:13.997Z,998.56
2022-12-13T20:13:13.875Z,998.64
2022-12-13T20:18:14.017Z,998.65
2022-12-13T20:23:13.729Z,998.55
2022-12-13T20:28:16.389Z,998.56
2022-12-13T20:33:13.650Z,998.71
2022-12-13T20:38:13.619Z,998.67
2022-12-13T20:43:13.536Z,998.64
2022-12-13T20:48:13.467Z,998.63
2022-12-13T20:53:13.451Z,998.54
2022-12-13T20:58:13.406Z,998.53
2022-12-13T21:03:13.273Z,998.60
2022-12-13T21:08:13.194Z,998.44
2022-12-13T21:13:13.147Z,998.42
2022-12-13T21:18:13.062Z,998.44
2022-12-13T21:23:13.015Z,998.38
2022-12-13T21:28:12.949Z,998.34
2022-12-13T21:33:12.893Z,998.46
2022-12-13T21:38:12.814Z,998.27
2022-12-13T21:43:12.734Z,998.13
2022-12-13T21:48:12.673Z,998.10
2022-12-13T21:53:12.623Z,997.95
2022-12-13T21:58:12.551Z,997.85
2022-12-13T22:03:12.570Z,997.87
2022-12-13T22:08:12.508Z,997.77
2022-12-13T22:13:12.380Z,997.75
2022-12-13T22:18:14.451Z,997.94
2022-12-13T22:23:12.291Z,997.87
2022-12-13T22:28:12.207Z,997.81
2022-12-13T22:33:12.128Z,997.73
2022-12-13T22:38:12.078Z,997.75
2022-12-13T22:43:16.053Z,997.58
2022-12-13T22:48:12.930Z,997.59
2022-12-13T22:53:11.870Z,997.61
2022-12-13T22:58:11.824Z,997.39
2022-12-13T23:03:11.754Z,997.34
2022-12-13T23:08:11.687Z,997.36
2022-12-13T23:13:11.632Z,997.25
2022-12-13T23:18:11.688Z,997.25
2022-12-13T23:23:11.555Z,997.19
2022-12-13T23:28:11.488Z,997.16
2022-12-13T23:33:11.474Z,997.06
2022-12-13T23:38:11.434Z,997.08
2022-12-13T23:43:11.242Z,996.97
2022-12-13T23:48:11.266Z,996.89
2022-12-13T23:53:11.119Z,996.85
2022-12-13T23:58:11.193Z,996.85
